AirNav   Pilot Hours Calculator
 
 1421 users online  

MA76 Waltham Weston Hospital & Medical Center Heliport
Waltham, Massachusetts, USA

GOING TO WALTHAM?


FAA INFORMATION EFFECTIVE 05 DECEMBER 2019

Location

FAA Identifier: MA76
Lat/Long: 42-22-03.3460N 071-14-53.2010W
42-22.055767N 071-14.886683W
42.3675961,-71.2481114
(estimated)
Elevation: 75 ft. / 23 m (estimated)
Variation: 16W (1985)
Time zone: UTC -5 (UTC -4 during Daylight Saving Time)
Zip code: 02453

Heliport Operations

Heliport use: Private use, MEDICAL USE.
Control tower: no
ARTCC: BOSTON CENTER
FSS: BRIDGEPORT FLIGHT SERVICE STATION
Attendance: UNATNDD
Wind indicator: no
Segmented circle: no

Heliport Communications

WX ASOS at BED (6 nm N): 124.6 (781-274-9733)
WX ASOS at BOS (11 nm E): PHONE 617-567-5762
WX ASOS at OWD (11 nm S): 119.95 (781-762-4314)
WX ASOS at BVY (20 nm NE): PHONE 978-921-5042

Nearby radio navigation aids

VOR radial/distance  VOR name  Freq  Var
BOSr289/11.5BOSTON VOR/DME112.7016W
LWMr212/23.4LAWRENCE VOR/DME112.5015W
MHTr185/30.5MANCHESTER VOR/DME114.4015W
PUTr061/36.3PUTNAM VOR/DME117.4014W
GDMr121/37.4GARDNER VOR/DME110.6014W
PVDr026/39.4PROVIDENCE VOR/DME115.6014W

 
NDB name  Hdg/Dist  Freq  Var  ID
MARSHFIELD318/30.136816WIMR .. -- .-.
TAUNTON357/31.322716WTAN - .- -.

Heliport Services

Runway Information

Helipad H1

Dimensions: 100 x 100 ft. / 30 x 30 m
Surface: asphalt
Latitude: 42-22.055767N
Longitude: 071-14.886683W
Elevation: 75.0 ft.
Traffic pattern: leftleft
Obstructions: trees

Heliport Ownership and Management from official FAA records

Ownership: Privately-owned
Owner: WALTHAM WESTON HOSP & MED CTR
HOPE AVENUE
WALTHAM, MA 02254
Phone 617-647-6201
Manager: JAMES L SALSBURY, PRES
HOPE AVENUE
WALTHAM, MA 02254
Phone 617-647-6000

Additional Remarks

FOR CD CTC BOSTON APCH AT 603-594-5551.

Instrument Procedures

There are no published instrument procedures at MA76.

Some nearby airports with instrument procedures:

KBED - Laurence G Hanscom Field Airport (6 nm N)
KBOS - General Edward Lawrence Logan International Airport (11 nm E)
KOWD - Norwood Memorial Airport (11 nm S)
6B6 - Minute Man Air Field (13 nm NW)
1B6 - Hopedale Industrial Park Airport (20 nm SW)
KBVY - Beverly Regional Airport (20 nm NE)
 
Loc | Ops | Rwys | IFR | FBO | Links
Com | Nav | Svcs | Stats | Notes
Area around MA76 (Waltham Weston Hospital & Medical Center Heliport)
 
Road maps at: MapQuest Bing Google
 
Aerial photo
No photo
 
Sectional chart

 
Airport distance calculator
Flying to Waltham Weston Hospital & Medical Center Heliport? Find the distance to fly.

From to MA76

Sunrise and sunset
Times for 05-Dec-2019
 Local
(UTC-5)
 Zulu
(UTC)
Morning civil twilight06:2811:28
Sunrise07:0012:00
Sunset16:1221:12
Evening civil twilight16:4321:43

Current date and time
Zulu (UTC)  05-Dec-2019 15:12:58
Local (UTC-5)  05-Dec-2019 10:12:58
 
METAR
KBED 
6nm N 
051451Z 27008KT 10SM CLR 04/M03 A2958 RMK AO2 SLP032 I3000 T00391028 51015
KBOS 
10nm E 
051454Z 27009KT 10SM FEW140 FEW250 06/M02 A2959 RMK AO2 SLP020 T00561017 51015
KMQE 
11nm SE 
051451Z AUTO 28010G20KT 02/M02 A2956 RMK AO1 SLP026 T00221022 51016
KOWD 
12nm S 
051453Z 28011KT 10SM CLR 05/M02 A2959 RMK AO2 SLP021 I3000 T00501022 51014
KBVY 
20nm NE 
051453Z 27008KT 10SM CLR 03/M02 A2958 RMK AO2 SLP013 T00281022 51017
TAF
KBED 
6nm N 
051125Z 0512/0612 00000KT P6SM FEW120 TEMPO 0512/0513 1 1/2SM BR FM051400 28006KT P6SM BKN150 FM052200 28009KT P6SM SCT200 FM061000 26007KT P6SM FEW200
KBOS 
10nm E 
051125Z 0512/0618 27008KT P6SM SCT140 FM051500 28014G20KT P6SM BKN120 FM060400 28012KT P6SM SKC FM061300 26009KT P6SM FEW150
NOTAMs
Click for the latest NOTAMs
NOTAMs are issued by the DoD/FAA and will open in a separate window not controlled by AirNav.

 

 
 

Would you like to see your business listed on this page?

 If your business provides an interesting product or service to pilots, flight crews, aircraft, or users of the Waltham Weston Hospital & Medical Center Heliport, you should consider listing it here.  To start the listing process, click on the button below
 
Add a business
 

Other Pages about Waltham Weston Hospital & Medical Center Heliport

Update a link
 
Copyright © AirNav, LLC. All rights reserved. Privacy Policy  Contact